createdAt,value
2018-12-06T00:00:52.268Z,16.27
2018-12-06T00:03:20.563Z,19.17
2018-12-06T00:05:48.888Z,17.33
2018-12-06T00:08:18.545Z,16.83
2018-12-06T00:10:47.930Z,15.57
2018-12-06T00:13:19.014Z,15.97
2018-12-06T00:15:47.617Z,16.70
2018-12-06T00:18:16.456Z,19.27
2018-12-06T00:20:44.883Z,21.00
2018-12-06T00:23:13.162Z,19.73
2018-12-06T00:25:41.341Z,21.27
2018-12-06T00:28:09.961Z,21.37
2018-12-06T00:30:41.658Z,20.67
2018-12-06T00:33:10.373Z,22.90
2018-12-06T00:35:39.282Z,19.70
2018-12-06T00:38:07.613Z,18.17
2018-12-06T00:40:35.903Z,18.93
2018-12-06T00:43:04.340Z,18.30
2018-12-06T00:45:33.301Z,21.03
2018-12-06T00:48:01.841Z,19.77
2018-12-06T00:50:30.166Z,21.00
2018-12-06T00:53:04.882Z,20.37
2018-12-06T00:55:35.994Z,19.20
2018-12-06T00:58:04.804Z,22.03
2018-12-06T01:00:33.481Z,24.00
2018-12-06T01:03:02.498Z,25.97
2018-12-06T01:05:30.667Z,24.53
2018-12-06T01:07:58.987Z,20.53
2018-12-06T01:10:27.758Z,20.30
2018-12-06T01:12:56.016Z,19.60
2018-12-06T01:15:24.445Z,22.77
2018-12-06T01:17:53.027Z,19.17
2018-12-06T01:20:21.490Z,19.20
2018-12-06T01:22:50.187Z,19.60
2018-12-06T01:25:19.492Z,17.77
2018-12-06T01:27:47.959Z,19.80
2018-12-06T01:30:16.449Z,17.37
2018-12-06T01:32:44.981Z,19.07
2018-12-06T01:35:13.889Z,18.77
2018-12-06T01:37:42.617Z,21.20
2018-12-06T01:40:11.170Z,16.27
2018-12-06T01:42:39.654Z,18.47
2018-12-06T01:45:08.005Z,22.67
2018-12-06T01:47:36.483Z,17.80
2018-12-06T01:50:05.756Z,16.57
2018-12-06T01:52:34.131Z,16.30
2018-12-06T01:55:02.617Z,16.37
2018-12-06T01:57:31.258Z,15.73
2018-12-06T01:59:59.422Z,16.90
2018-12-06T02:02:27.810Z,18.07
2018-12-06T02:04:56.395Z,18.97
2018-12-06T02:07:25.383Z,18.50
2018-12-06T02:09:55.678Z,19.77
2018-12-06T02:12:25.578Z,21.27
2018-12-06T02:14:54.994Z,23.13
2018-12-06T02:17:23.950Z,17.30
2018-12-06T02:19:53.186Z,20.33
2018-12-06T02:22:23.367Z,22.33
2018-12-06T02:24:52.846Z,21.73
2018-12-06T02:27:22.062Z,18.13
2018-12-06T02:29:53.601Z,21.47
2018-12-06T02:32:24.008Z,18.53
2018-12-06T02:34:53.053Z,23.40
2018-12-06T02:37:22.217Z,24.63
2018-12-06T02:39:51.889Z,21.87
2018-12-06T02:42:21.394Z,20.73
2018-12-06T02:44:50.305Z,21.33
2018-12-06T02:47:19.303Z,19.47
2018-12-06T02:49:48.247Z,19.90
2018-12-06T02:52:16.648Z,16.97
2018-12-06T02:54:45.316Z,17.87
2018-12-06T02:57:13.494Z,18.67
2018-12-06T02:59:41.790Z,19.87
2018-12-06T03:02:09.979Z,22.40
2018-12-06T03:04:38.323Z,19.47
2018-12-06T03:07:06.602Z,20.27
2018-12-06T03:09:34.962Z,20.43
2018-12-06T03:12:03.597Z,18.20
2018-12-06T03:14:32.229Z,19.70
2018-12-06T03:17:00.484Z,19.73
2018-12-06T03:19:29.356Z,23.97
2018-12-06T03:21:57.507Z,19.37
2018-12-06T03:24:25.676Z,18.07
2018-12-06T03:26:54.085Z,18.03
2018-12-06T03:29:22.237Z,17.47
2018-12-06T03:31:50.485Z,18.73
2018-12-06T03:34:18.731Z,18.43
2018-12-06T03:36:47.747Z,18.77
2018-12-06T03:39:16.242Z,20.60
2018-12-06T03:41:44.584Z,18.10
2018-12-06T03:44:12.979Z,20.73
2018-12-06T03:46:41.420Z,20.47
2018-12-06T03:49:09.754Z,20.47
2018-12-06T03:51:38.239Z,23.53
2018-12-06T03:54:06.696Z,23.57
2018-12-06T03:56:35.192Z,22.53
2018-12-06T03:59:03.719Z,22.17
2018-12-06T04:01:31.961Z,19.07
2018-12-06T04:04:00.239Z,18.93
2018-12-06T04:06:28.440Z,18.13
2018-12-06T04:08:57.294Z,18.57
2018-12-06T04:11:25.671Z,16.27
2018-12-06T04:13:53.999Z,17.47
2018-12-06T04:16:22.249Z,16.87
2018-12-06T04:18:50.706Z,17.20
2018-12-06T04:21:19.192Z,17.60
2018-12-06T04:23:47.458Z,20.23
2018-12-06T04:26:15.782Z,18.30
2018-12-06T04:28:44.037Z,18.80
2018-12-06T04:31:12.774Z,17.43
2018-12-06T04:33:40.939Z,20.03
2018-12-06T04:36:10.079Z,19.73
2018-12-06T04:38:38.578Z,20.90
2018-12-06T04:41:06.892Z,18.30
2018-12-06T04:43:35.654Z,17.37
2018-12-06T04:46:03.916Z,20.90
2018-12-06T04:48:32.274Z,17.87
2018-12-06T04:51:00.949Z,18.67
2018-12-06T04:53:29.206Z,15.07
2018-12-06T04:55:57.544Z,17.03
2018-12-06T04:58:25.779Z,18.93
2018-12-06T05:00:54.093Z,18.97
2018-12-06T05:03:22.533Z,18.47
2018-12-06T05:05:51.125Z,19.97
2018-12-06T05:08:19.394Z,19.23
2018-12-06T05:10:47.605Z,17.80
2018-12-06T05:13:15.990Z,17.97
2018-12-06T05:15:44.534Z,20.90
2018-12-06T05:18:12.777Z,19.67
2018-12-06T05:20:41.318Z,20.03
2018-12-06T05:23:10.234Z,19.70
2018-12-06T05:25:39.125Z,19.80
2018-12-06T05:28:07.570Z,20.80
2018-12-06T05:30:35.922Z,18.80
2018-12-06T05:33:04.302Z,20.30
2018-12-06T05:35:32.451Z,17.37
2018-12-06T05:38:00.533Z,18.80
2018-12-06T05:40:28.740Z,18.70
2018-12-06T05:42:56.952Z,20.53
2018-12-06T05:45:25.164Z,19.37
2018-12-06T05:47:53.455Z,18.77
2018-12-06T05:50:21.703Z,21.93
2018-12-06T05:52:50.023Z,16.30
2018-12-06T05:55:18.247Z,19.40
2018-12-06T05:57:48.254Z,16.33
2018-12-06T06:00:16.978Z,16.20
2018-12-06T06:02:45.415Z,21.23
2018-12-06T06:05:13.595Z,24.00
2018-12-06T06:07:41.965Z,24.80
2018-12-06T06:10:10.301Z,17.93
2018-12-06T06:12:40.451Z,15.93
2018-12-06T06:15:09.212Z,19.20
2018-12-06T06:17:39.467Z,19.23
2018-12-06T06:20:08.017Z,16.90
2018-12-06T06:22:36.397Z,16.90
2018-12-06T06:25:05.462Z,14.73
2018-12-06T06:27:33.806Z,14.67
2018-12-06T06:30:02.169Z,17.97
2018-12-06T06:32:30.462Z,17.20
2018-12-06T06:34:59.728Z,18.20
2018-12-06T06:37:30.146Z,14.07
2018-12-06T06:39:58.401Z,17.80
2018-12-06T06:42:26.766Z,14.30
2018-12-06T06:44:54.942Z,16.50
2018-12-06T06:47:23.518Z,13.70
2018-12-06T06:49:51.869Z,14.87
2018-12-06T06:52:20.274Z,14.07
2018-12-06T06:54:49.295Z,16.17
2018-12-06T06:57:17.501Z,16.17
2018-12-06T06:59:45.779Z,14.40
2018-12-06T07:02:14.016Z,18.37
2018-12-06T07:04:42.508Z,16.93
2018-12-06T07:07:10.912Z,17.83
2018-12-06T07:09:39.336Z,20.23
2018-12-06T07:12:07.707Z,20.20
2018-12-06T07:14:35.928Z,17.60
2018-12-06T07:17:04.556Z,18.70
2018-12-06T07:19:33.126Z,21.60
2018-12-06T07:22:01.330Z,19.87
2018-12-06T07:24:29.569Z,20.17
2018-12-06T07:26:57.987Z,17.90
2018-12-06T07:29:26.526Z,19.13
2018-12-06T07:31:55.302Z,19.53
2018-12-06T07:34:23.394Z,19.77
2018-12-06T07:36:51.782Z,17.63
2018-12-06T07:39:20.315Z,19.43
2018-12-06T07:41:48.970Z,19.53
2018-12-06T07:44:17.676Z,17.33
2018-12-06T07:46:46.031Z,18.53
2018-12-06T07:49:14.475Z,20.73
2018-12-06T07:51:43.426Z,21.13
2018-12-06T07:54:11.747Z,18.70
2018-12-06T07:57:43.351Z,18.87
2018-12-06T08:00:12.296Z,20.03
2018-12-06T08:02:40.576Z,22.27
2018-12-06T08:05:08.728Z,17.80
2018-12-06T08:07:36.648Z,21.70
2018-12-06T08:10:05.982Z,18.60
2018-12-06T08:12:33.760Z,19.73
2018-12-06T08:15:01.637Z,20.63
2018-12-06T08:17:29.588Z,21.10
2018-12-06T08:19:57.582Z,20.47
2018-12-06T08:22:25.714Z,22.87
2018-12-06T08:24:53.665Z,23.37
2018-12-06T08:27:21.566Z,22.57
2018-12-06T08:29:49.561Z,21.80
2018-12-06T08:32:17.398Z,21.70
2018-12-06T08:34:45.214Z,21.00
2018-12-06T08:37:13.003Z,20.83
2018-12-06T08:39:40.831Z,17.50
2018-12-06T08:42:08.740Z,20.03
2018-12-06T08:44:36.543Z,19.93
2018-12-06T08:47:04.779Z,19.40
2018-12-06T08:49:32.776Z,18.47
2018-12-06T08:52:00.736Z,20.43
2018-12-06T08:54:28.579Z,21.73
2018-12-06T08:56:56.489Z,18.57
2018-12-06T08:59:24.522Z,20.80
2018-12-06T09:01:52.455Z,19.90
2018-12-06T09:04:20.379Z,19.70
2018-12-06T09:06:48.224Z,19.30
2018-12-06T09:09:17.199Z,16.37
2018-12-06T09:11:45.387Z,14.37
2018-12-06T09:14:14.056Z,15.80
2018-12-06T09:16:43.010Z,13.80
2018-12-06T09:19:12.241Z,15.63
2018-12-06T09:21:40.506Z,16.03
2018-12-06T09:24:08.770Z,14.70
2018-12-06T09:26:36.926Z,13.73
2018-12-06T09:29:05.128Z,11.87
2018-12-06T09:31:33.877Z,15.37
2018-12-06T09:34:06.361Z,12.83
2018-12-06T09:36:35.800Z,17.60
2018-12-06T09:39:07.323Z,17.47
2018-12-06T09:41:35.543Z,13.17
2018-12-06T09:44:04.348Z,16.07
2018-12-06T09:46:34.104Z,14.73
2018-12-06T09:49:04.078Z,16.87
2018-12-06T09:51:33.035Z,18.37
2018-12-06T09:54:01.772Z,16.20
2018-12-06T09:56:30.022Z,15.03
2018-12-06T09:58:58.688Z,17.83
2018-12-06T10:01:27.289Z,18.07
2018-12-06T10:03:55.729Z,22.93
2018-12-06T10:06:23.850Z,20.00
2018-12-06T10:08:51.977Z,17.67
2018-12-06T10:11:20.153Z,19.30
2018-12-06T10:13:48.246Z,7.73
2018-12-06T10:16:16.470Z,11.33
2018-12-06T10:18:44.811Z,10.50
2018-12-06T10:21:13.312Z,4.53
2018-12-06T10:23:41.738Z,4.40
2018-12-06T10:26:10.062Z,4.60
2018-12-06T10:28:38.279Z,3.40
2018-12-06T10:31:06.643Z,4.03
2018-12-06T10:33:34.811Z,6.00
2018-12-06T10:36:03.002Z,3.17
2018-12-06T10:38:31.119Z,4.63
2018-12-06T10:40:59.279Z,3.63
2018-12-06T10:43:27.989Z,3.77
2018-12-06T10:45:56.363Z,3.63
2018-12-06T10:48:24.645Z,5.23
2018-12-06T10:51:05.107Z,5.10
2018-12-06T10:53:33.668Z,3.60
2018-12-06T10:56:01.999Z,2.67
2018-12-06T10:58:30.226Z,3.00
2018-12-06T11:01:04.225Z,2.60
2018-12-06T11:03:37.035Z,2.97
2018-12-06T11:06:05.338Z,3.00
2018-12-06T11:08:33.510Z,4.53
2018-12-06T11:11:01.942Z,3.83
2018-12-06T11:13:30.178Z,3.27
2018-12-06T11:15:58.352Z,3.80
2018-12-06T11:18:26.878Z,4.67
2018-12-06T11:20:55.128Z,5.47
2018-12-06T11:23:23.466Z,2.70
2018-12-06T11:25:51.913Z,3.00
2018-12-06T11:28:20.324Z,3.03
2018-12-06T11:30:48.475Z,3.13
2018-12-06T11:33:16.867Z,4.00
2018-12-06T11:35:45.042Z,2.50
2018-12-06T11:38:13.577Z,3.77
2018-12-06T11:40:42.083Z,4.07
2018-12-06T11:43:10.285Z,3.67
2018-12-06T11:45:38.899Z,2.47
2018-12-06T11:48:07.313Z,3.80
2018-12-06T11:50:35.679Z,4.37
2018-12-06T11:53:04.130Z,3.57
2018-12-06T11:55:32.728Z,3.73
2018-12-06T11:58:01.136Z,3.30
2018-12-06T12:00:29.762Z,3.33
2018-12-06T12:02:58.934Z,2.90
2018-12-06T12:05:27.087Z,3.43
2018-12-06T12:07:55.361Z,3.60
2018-12-06T12:10:23.662Z,4.07
2018-12-06T12:12:51.782Z,3.80
2018-12-06T12:15:19.966Z,3.70
2018-12-06T12:17:48.127Z,5.20
2018-12-06T12:20:16.229Z,3.27
2018-12-06T12:22:44.830Z,5.13
2018-12-06T12:25:13.296Z,11.50
2018-12-06T12:27:41.953Z,8.73
2018-12-06T12:30:10.564Z,9.67
2018-12-06T12:32:38.839Z,6.67
2018-12-06T12:35:07.856Z,7.47
2018-12-06T12:37:36.105Z,5.17
2018-12-06T12:40:07.431Z,3.97
2018-12-06T12:42:35.863Z,5.47
2018-12-06T12:45:06.396Z,3.93
2018-12-06T12:47:34.615Z,5.13
2018-12-06T12:50:03.643Z,2.77
2018-12-06T12:52:31.868Z,4.77
2018-12-06T12:55:00.553Z,2.90
2018-12-06T12:57:28.722Z,2.60
2018-12-06T12:59:57.141Z,2.20
2018-12-06T13:02:25.330Z,1.90
2018-12-06T13:04:53.691Z,2.53
2018-12-06T13:07:21.940Z,2.87
2018-12-06T13:09:57.937Z,2.73
2018-12-06T13:12:26.465Z,1.40
2018-12-06T13:14:54.770Z,2.23
2018-12-06T13:17:23.158Z,1.67
2018-12-06T13:19:51.448Z,2.07
2018-12-06T13:22:19.718Z,1.67
2018-12-06T13:24:48.010Z,1.50
2018-12-06T13:27:16.562Z,0.90
2018-12-06T13:29:44.724Z,1.10
2018-12-06T13:32:13.369Z,0.80
2018-12-06T13:34:41.566Z,1.20
2018-12-06T13:37:09.851Z,1.20
2018-12-06T13:39:38.187Z,0.97
2018-12-06T13:42:06.463Z,1.37
2018-12-06T13:44:34.921Z,1.00
2018-12-06T13:47:03.546Z,0.73
2018-12-06T13:49:32.371Z,0.87
2018-12-06T13:52:00.500Z,1.37
2018-12-06T13:54:28.736Z,2.37
2018-12-06T13:56:57.132Z,1.40
2018-12-06T13:59:25.258Z,2.07
2018-12-06T14:01:53.516Z,4.37
2018-12-06T14:04:21.676Z,1.70
2018-12-06T14:06:50.258Z,1.63
2018-12-06T14:09:18.501Z,2.40
2018-12-06T14:11:46.781Z,1.50
2018-12-06T14:14:14.906Z,1.90
2018-12-06T14:16:43.176Z,2.23
2018-12-06T14:19:11.389Z,2.07
2018-12-06T14:21:39.487Z,1.40
2018-12-06T14:24:07.876Z,1.37
2018-12-06T14:26:47.223Z,1.50
2018-12-06T14:29:15.786Z,1.63
2018-12-06T14:31:44.742Z,2.17
2018-12-06T14:34:13.287Z,2.53
2018-12-06T14:36:42.728Z,2.17
2018-12-06T14:39:11.231Z,3.10
2018-12-06T14:41:39.387Z,2.40
2018-12-06T14:44:07.595Z,1.77
2018-12-06T14:46:35.727Z,1.60
2018-12-06T14:49:04.555Z,3.40
2018-12-06T14:51:33.045Z,2.07
2018-12-06T14:54:01.377Z,2.93
2018-12-06T14:56:29.572Z,3.77
2018-12-06T14:58:57.848Z,1.83
2018-12-06T15:01:26.291Z,2.33
2018-12-06T15:04:04.492Z,2.10
2018-12-06T15:06:37.573Z,2.47
2018-12-06T15:09:05.811Z,1.90
2018-12-06T15:11:34.155Z,3.03
2018-12-06T15:14:02.433Z,2.57
2018-12-06T15:16:30.829Z,2.10
2018-12-06T15:18:59.180Z,3.13
2018-12-06T15:21:27.383Z,5.13
2018-12-06T15:23:55.839Z,2.30
2018-12-06T15:26:23.945Z,3.00
2018-12-06T15:28:52.007Z,2.10
2018-12-06T15:31:20.031Z,1.80
2018-12-06T15:33:48.545Z,2.10
2018-12-06T15:36:16.739Z,2.57
2018-12-06T15:38:45.112Z,1.80
2018-12-06T15:41:13.772Z,2.00
2018-12-06T15:43:41.995Z,3.07
2018-12-06T15:46:10.433Z,4.20
2018-12-06T15:48:38.645Z,4.40
2018-12-06T15:51:15.037Z,4.77
2018-12-06T15:53:43.200Z,2.23
2018-12-06T15:56:11.349Z,1.93
2018-12-06T15:58:39.564Z,1.90
2018-12-06T16:01:07.665Z,1.47
2018-12-06T16:03:35.821Z,2.37
2018-12-06T16:06:05.489Z,2.33
2018-12-06T16:09:07.997Z,1.57
2018-12-06T16:11:36.329Z,2.53
2018-12-06T16:14:04.836Z,3.37
2018-12-06T16:16:33.057Z,2.43
2018-12-06T16:19:01.388Z,2.33
2018-12-06T16:21:30.034Z,4.37
2018-12-06T16:23:58.548Z,2.53
2018-12-06T16:26:26.965Z,2.90
2018-12-06T16:28:55.537Z,4.27
2018-12-06T16:31:23.979Z,4.83
2018-12-06T16:33:52.148Z,3.77
2018-12-06T16:36:20.281Z,3.13
2018-12-06T16:38:48.687Z,2.23
2018-12-06T16:41:17.081Z,1.67
2018-12-06T16:43:45.599Z,1.67
2018-12-06T16:46:13.916Z,3.20
2018-12-06T16:48:42.479Z,2.70
2018-12-06T16:51:20.810Z,4.77
2018-12-06T16:53:49.624Z,4.53
2018-12-06T16:56:18.143Z,3.00
2018-12-06T16:58:46.844Z,2.40
2018-12-06T17:01:15.468Z,2.93
2018-12-06T17:03:44.675Z,5.87
2018-12-06T17:06:13.737Z,3.30
2018-12-06T17:08:42.344Z,3.53
2018-12-06T17:11:10.950Z,6.33
2018-12-06T17:13:39.468Z,2.97
2018-12-06T17:16:07.969Z,3.73
2018-12-06T17:18:37.065Z,3.67
2018-12-06T17:21:05.634Z,2.53
2018-12-06T17:23:34.651Z,3.43
2018-12-06T17:26:03.845Z,3.33
2018-12-06T17:28:32.041Z,2.50
2018-12-06T17:31:00.326Z,2.13
2018-12-06T17:33:29.010Z,2.17
2018-12-06T17:35:59.916Z,2.87
2018-12-06T17:38:42.718Z,4.67
2018-12-06T17:41:11.978Z,3.40
2018-12-06T17:43:40.342Z,2.83
2018-12-06T17:46:09.978Z,2.87
2018-12-06T17:48:38.368Z,4.93
2018-12-06T17:51:07.076Z,4.77
2018-12-06T17:53:35.680Z,3.57
2018-12-06T17:56:04.105Z,5.47
2018-12-06T17:58:32.855Z,2.97
2018-12-06T18:01:01.108Z,2.90
2018-12-06T18:03:29.317Z,4.10
2018-12-06T18:05:57.816Z,17.00
2018-12-06T18:08:26.597Z,7.80
2018-12-06T18:10:55.008Z,28.77
2018-12-06T18:13:23.207Z,5.60
2018-12-06T18:15:51.955Z,4.77
2018-12-06T18:18:20.343Z,2.90
2018-12-06T18:20:48.781Z,69.30
2018-12-06T18:23:17.340Z,20.73
2018-12-06T18:25:46.538Z,50.03
2018-12-06T18:28:14.900Z,7.00
2018-12-06T18:30:43.447Z,19.10
2018-12-06T18:33:12.523Z,31.13
2018-12-06T18:35:41.020Z,44.87
2018-12-06T18:38:09.354Z,27.90
2018-12-06T18:40:37.861Z,16.13
2018-12-06T18:43:06.553Z,6.80
2018-12-06T18:45:35.472Z,7.90
2018-12-06T18:48:03.942Z,5.80
2018-12-06T18:50:32.140Z,3.43
2018-12-06T18:53:00.331Z,3.20
2018-12-06T18:55:29.144Z,3.90
2018-12-06T18:57:58.087Z,3.47
2018-12-06T19:00:26.605Z,3.00
2018-12-06T19:02:55.131Z,1.80
2018-12-06T19:05:23.421Z,2.10
2018-12-06T19:07:51.560Z,2.30
2018-12-06T19:10:20.177Z,2.30
2018-12-06T19:12:48.802Z,1.90
2018-12-06T19:15:17.093Z,1.83
2018-12-06T19:17:45.454Z,2.07
2018-12-06T19:20:14.086Z,3.40
2018-12-06T19:22:42.264Z,4.20
2018-12-06T19:25:10.488Z,2.67
2018-12-06T19:27:38.773Z,3.57
2018-12-06T19:30:10.202Z,3.67
2018-12-06T19:32:38.914Z,3.90
2018-12-06T19:35:07.727Z,2.87
2018-12-06T19:37:36.483Z,2.30
2018-12-06T19:40:05.907Z,2.57
2018-12-06T19:42:38.766Z,1.90
2018-12-06T19:45:05.898Z,1.60
2018-12-06T19:47:34.419Z,1.80
2018-12-06T19:50:02.707Z,1.80
2018-12-06T19:52:31.079Z,2.57
2018-12-06T19:54:59.501Z,1.70
2018-12-06T19:57:28.990Z,1.57
2018-12-06T19:59:57.923Z,2.00
2018-12-06T20:02:26.179Z,1.60
2018-12-06T20:04:54.805Z,1.33
2018-12-06T20:07:23.524Z,1.30
2018-12-06T20:09:52.305Z,1.40
2018-12-06T20:12:20.637Z,1.40
2018-12-06T20:14:49.364Z,1.40
2018-12-06T20:17:17.482Z,2.50
2018-12-06T20:19:46.181Z,1.70
2018-12-06T20:22:14.902Z,2.20
2018-12-06T20:24:48.195Z,3.10
2018-12-06T20:27:16.443Z,2.07
2018-12-06T20:29:45.097Z,1.70
2018-12-06T20:32:14.865Z,1.97
2018-12-06T20:34:47.097Z,2.57
2018-12-06T20:37:15.909Z,1.53
2018-12-06T20:39:44.608Z,2.00
2018-12-06T20:42:13.260Z,2.30
2018-12-06T20:44:42.415Z,1.60
2018-12-06T20:47:15.935Z,1.77
2018-12-06T20:49:44.684Z,5.40
2018-12-06T20:52:13.669Z,2.30
2018-12-06T20:54:42.312Z,1.83
2018-12-06T20:57:11.278Z,4.60
2018-12-06T20:59:39.625Z,3.97
2018-12-06T21:02:08.165Z,3.30
2018-12-06T21:04:37.052Z,2.93
2018-12-06T21:07:06.537Z,2.70
2018-12-06T21:09:34.930Z,1.50
2018-12-06T21:12:03.367Z,2.57
2018-12-06T21:14:31.577Z,2.97
2018-12-06T21:16:59.795Z,4.53
2018-12-06T21:19:29.262Z,2.90
2018-12-06T21:21:57.620Z,4.50
2018-12-06T21:24:25.889Z,4.77
2018-12-06T21:26:54.167Z,1.50
2018-12-06T21:29:22.474Z,1.53
2018-12-06T21:31:51.143Z,2.50
2018-12-06T21:34:19.695Z,1.93
2018-12-06T21:36:49.350Z,1.70
2018-12-06T21:39:17.935Z,1.57
2018-12-06T21:41:46.129Z,2.47
2018-12-06T21:44:14.481Z,2.43
2018-12-06T21:46:43.706Z,3.07
2018-12-06T21:49:12.536Z,3.47
2018-12-06T21:51:40.784Z,6.70
2018-12-06T21:54:09.750Z,3.70
2018-12-06T21:56:38.380Z,3.40
2018-12-06T21:59:06.693Z,7.40
2018-12-06T22:01:35.359Z,1.77
2018-12-06T22:04:03.729Z,2.10
2018-12-06T22:06:32.558Z,1.90
2018-12-06T22:09:01.195Z,3.13
2018-12-06T22:11:29.486Z,1.40
2018-12-06T22:13:57.658Z,1.57
2018-12-06T22:16:26.246Z,1.80
2018-12-06T22:18:55.127Z,1.17
2018-12-06T22:21:23.354Z,1.00
2018-12-06T22:23:51.778Z,1.37
2018-12-06T22:26:20.035Z,3.10
2018-12-06T22:28:48.735Z,1.20
2018-12-06T22:31:17.424Z,1.40
2018-12-06T22:33:45.646Z,1.30
2018-12-06T22:36:14.076Z,1.63
2018-12-06T22:38:42.680Z,1.20
2018-12-06T22:41:11.066Z,1.30
2018-12-06T22:43:39.496Z,1.00
2018-12-06T22:46:07.731Z,0.97
2018-12-06T22:48:36.734Z,1.83
2018-12-06T22:51:05.700Z,1.20
2018-12-06T22:53:34.323Z,0.80
2018-12-06T22:56:02.721Z,1.10
2018-12-06T22:58:30.861Z,2.33
2018-12-06T23:01:00.839Z,1.10
2018-12-06T23:03:29.151Z,1.27
2018-12-06T23:05:58.915Z,1.27
2018-12-06T23:08:27.364Z,1.07
2018-12-06T23:10:55.877Z,1.10
2018-12-06T23:13:24.148Z,1.00
2018-12-06T23:15:52.368Z,0.90
2018-12-06T23:18:21.142Z,1.00
2018-12-06T23:20:50.002Z,0.90
2018-12-06T23:23:19.339Z,1.20
2018-12-06T23:25:48.020Z,1.90
2018-12-06T23:28:16.752Z,1.30
2018-12-06T23:30:45.248Z,2.90
2018-12-06T23:33:14.825Z,1.10
2018-12-06T23:35:43.470Z,1.20
2018-12-06T23:38:11.991Z,1.77
2018-12-06T23:40:42.208Z,1.67
2018-12-06T23:43:10.598Z,1.10
2018-12-06T23:45:38.857Z,0.90
2018-12-06T23:48:07.072Z,2.00
2018-12-06T23:50:35.739Z,1.20
2018-12-06T23:53:04.535Z,0.93
2018-12-06T23:55:33.514Z,1.00
2018-12-06T23:58:02.094Z,0.90
